sensor_id;sensor_type;location;lat;lon;timestamp;pressure;altitude;pressure_sealevel;temperature;humidity
64713;BME280;51140;45.340;5.980;2022-08-19T00:00:09;96902.44;;;16.71;100.00
64713;BME280;51140;45.340;5.980;2022-08-19T00:02:36;96897.50;;;16.58;100.00
64713;BME280;51140;45.340;5.980;2022-08-19T00:05:02;96899.84;;;16.61;100.00
64713;BME280;51140;45.340;5.980;2022-08-19T00:07:28;96888.50;;;16.61;100.00
64713;BME280;51140;45.340;5.980;2022-08-19T00:09:53;96887.88;;;16.49;100.00
64713;BME280;51140;45.340;5.980;2022-08-19T00:12:19;96887.50;;;16.62;100.00
64713;BME280;51140;45.340;5.980;2022-08-19T00:14:45;96879.41;;;16.55;100.00
64713;BME280;51140;45.340;5.980;2022-08-19T00:17:10;96884.41;;;16.49;100.00
64713;BME280;51140;45.340;5.980;2022-08-19T00:19:36;96874.28;;;16.54;100.00
64713;BME280;51140;45.340;5.980;2022-08-19T00:22:02;96860.09;;;16.65;100.00
64713;BME280;51140;45.340;5.980;2022-08-19T00:24:28;96853.91;;;16.66;100.00
64713;BME280;51140;45.340;5.980;2022-08-19T00:26:55;96849.50;;;16.56;100.00
64713;BME280;51140;45.340;5.980;2022-08-19T00:29:23;96842.13;;;16.60;100.00
64713;BME280;51140;45.340;5.980;2022-08-19T00:31:50;96839.97;;;16.55;100.00
64713;BME280;51140;45.340;5.980;2022-08-19T00:34:20;96828.88;;;16.79;100.00
64713;BME280;51140;45.340;5.980;2022-08-19T00:36:46;96827.16;;;16.70;100.00
64713;BME280;51140;45.340;5.980;2022-08-19T00:39:12;96815.16;;;16.85;100.00
64713;BME280;51140;45.340;5.980;2022-08-19T00:41:39;96811.53;;;16.69;100.00
64713;BME280;51140;45.340;5.980;2022-08-19T00:44:14;96817.81;;;16.58;100.00
64713;BME280;51140;45.340;5.980;2022-08-19T00:46:42;96803.72;;;16.77;100.00
64713;BME280;51140;45.340;5.980;2022-08-19T00:49:23;96803.81;;;16.85;100.00
64713;BME280;51140;45.340;5.980;2022-08-19T00:51:51;96799.38;;;16.85;100.00
64713;BME280;51140;45.340;5.980;2022-08-19T00:54:19;96812.66;;;16.66;100.00
64713;BME280;51140;45.340;5.980;2022-08-19T00:56:45;96816.81;;;16.59;100.00
64713;BME280;51140;45.340;5.980;2022-08-19T00:59:11;96811.22;;;16.72;100.00
64713;BME280;51140;45.340;5.980;2022-08-19T01:01:42;96796.66;;;16.77;100.00
64713;BME280;51140;45.340;5.980;2022-08-19T01:04:09;96818.75;;;16.67;100.00
64713;BME280;51140;45.340;5.980;2022-08-19T01:06:36;96813.47;;;16.67;100.00
64713;BME280;51140;45.340;5.980;2022-08-19T01:09:03;96800.84;;;16.70;100.00
64713;BME280;51140;45.340;5.980;2022-08-19T01:11:31;96794.63;;;16.71;100.00
64713;BME280;51140;45.340;5.980;2022-08-19T01:13:58;96787.31;;;16.65;100.00
64713;BME280;51140;45.340;5.980;2022-08-19T01:16:26;96783.06;;;16.82;100.00
64713;BME280;51140;45.340;5.980;2022-08-19T01:18:53;96799.94;;;16.61;100.00
64713;BME280;51140;45.340;5.980;2022-08-19T01:21:28;96798.72;;;16.56;100.00
64713;BME280;51140;45.340;5.980;2022-08-19T01:23:55;96789.19;;;16.55;100.00
64713;BME280;51140;45.340;5.980;2022-08-19T01:26:23;96794.16;;;16.58;100.00
64713;BME280;51140;45.340;5.980;2022-08-19T01:28:52;96920.25;;;16.77;100.00
64713;BME280;51140;45.340;5.980;2022-08-19T01:31:22;96917.63;;;16.77;100.00
64713;BME280;51140;45.340;5.980;2022-08-19T01:33:50;96921.38;;;16.75;100.00
64713;BME280;51140;45.340;5.980;2022-08-19T01:36:32;96920.94;;;16.79;100.00
64713;BME280;51140;45.340;5.980;2022-08-19T01:38:59;96940.00;;;16.54;100.00
64713;BME280;51140;45.340;5.980;2022-08-19T01:41:27;96936.09;;;16.58;100.00
64713;BME280;51140;45.340;5.980;2022-08-19T01:43:53;96963.06;;;16.23;100.00
64713;BME280;51140;45.340;5.980;2022-08-19T01:46:19;96966.09;;;16.28;100.00
64713;BME280;51140;45.340;5.980;2022-08-19T01:48:46;96957.19;;;16.39;100.00
64713;BME280;51140;45.340;5.980;2022-08-19T01:51:12;96953.16;;;16.54;100.00
64713;BME280;51140;45.340;5.980;2022-08-19T01:53:39;96955.50;;;16.57;100.00
64713;BME280;51140;45.340;5.980;2022-08-19T01:56:05;96958.09;;;16.67;100.00
64713;BME280;51140;45.340;5.980;2022-08-19T01:58:44;96949.38;;;16.66;100.00
64713;BME280;51140;45.340;5.980;2022-08-19T02:01:12;96956.31;;;16.57;100.00
64713;BME280;51140;45.340;5.980;2022-08-19T02:03:38;96953.84;;;16.56;100.00
64713;BME280;51140;45.340;5.980;2022-08-19T02:06:04;96958.22;;;16.65;100.00
64713;BME280;51140;45.340;5.980;2022-08-19T02:08:32;96959.63;;;16.59;100.00
64713;BME280;51140;45.340;5.980;2022-08-19T02:10:57;96954.50;;;16.58;100.00
64713;BME280;51140;45.340;5.980;2022-08-19T02:13:24;96963.56;;;16.46;100.00
64713;BME280;51140;45.340;5.980;2022-08-19T02:15:50;96959.38;;;16.53;100.00
64713;BME280;51140;45.340;5.980;2022-08-19T02:18:16;96947.56;;;16.67;100.00
64713;BME280;51140;45.340;5.980;2022-08-19T02:20:42;96936.03;;;16.77;100.00
64713;BME280;51140;45.340;5.980;2022-08-19T02:23:09;96938.94;;;16.74;100.00
64713;BME280;51140;45.340;5.980;2022-08-19T02:25:35;96952.25;;;16.73;100.00
64713;BME280;51140;45.340;5.980;2022-08-19T02:28:01;96943.97;;;16.68;100.00
64713;BME280;51140;45.340;5.980;2022-08-19T02:30:27;96946.84;;;16.74;100.00
64713;BME280;51140;45.340;5.980;2022-08-19T02:32:53;96942.91;;;16.88;100.00
64713;BME280;51140;45.340;5.980;2022-08-19T02:35:19;96948.19;;;16.78;100.00
64713;BME280;51140;45.340;5.980;2022-08-19T02:37:44;96943.75;;;16.79;100.00
64713;BME280;51140;45.340;5.980;2022-08-19T02:40:30;96949.50;;;16.65;100.00
64713;BME280;51140;45.340;5.980;2022-08-19T02:42:59;96949.44;;;16.47;100.00
64713;BME280;51140;45.340;5.980;2022-08-19T02:45:24;96943.53;;;16.72;100.00
64713;BME280;51140;45.340;5.980;2022-08-19T02:47:50;96939.47;;;16.78;100.00
64713;BME280;51140;45.340;5.980;2022-08-19T02:50:15;96950.16;;;16.76;100.00
64713;BME280;51140;45.340;5.980;2022-08-19T02:52:40;96953.91;;;16.74;100.00
64713;BME280;51140;45.340;5.980;2022-08-19T02:55:06;96952.09;;;16.74;100.00
64713;BME280;51140;45.340;5.980;2022-08-19T02:57:32;96958.72;;;16.78;100.00
64713;BME280;51140;45.340;5.980;2022-08-19T02:59:58;96963.00;;;16.79;100.00
64713;BME280;51140;45.340;5.980;2022-08-19T03:02:24;96960.66;;;16.76;100.00
64713;BME280;51140;45.340;5.980;2022-08-19T03:04:49;96960.72;;;16.67;100.00
64713;BME280;51140;45.340;5.980;2022-08-19T03:07:16;96959.19;;;16.64;100.00
64713;BME280;51140;45.340;5.980;2022-08-19T03:09:42;96960.72;;;16.67;100.00
64713;BME280;51140;45.340;5.980;2022-08-19T03:12:08;96964.88;;;16.59;100.00
64713;BME280;51140;45.340;5.980;2022-08-19T03:14:34;96960.66;;;16.76;100.00
64713;BME280;51140;45.340;5.980;2022-08-19T03:17:01;96969.38;;;16.77;100.00
64713;BME280;51140;45.340;5.980;2022-08-19T03:19:26;96967.72;;;16.76;100.00
64713;BME280;51140;45.340;5.980;2022-08-19T03:21:53;96965.25;;;16.74;100.00
64713;BME280;51140;45.340;5.980;2022-08-19T03:24:19;96958.16;;;16.84;100.00
64713;BME280;51140;45.340;5.980;2022-08-19T03:26:48;96960.06;;;16.92;100.00
64713;BME280;51140;45.340;5.980;2022-08-19T03:29:14;96960.06;;;16.92;100.00
64713;BME280;51140;45.340;5.980;2022-08-19T03:31:41;96966.44;;;16.89;100.00
64713;BME280;51140;45.340;5.980;2022-08-19T03:34:09;96970.03;;;16.88;100.00
64713;BME280;51140;45.340;5.980;2022-08-19T03:36:35;96980.56;;;16.88;100.00
64713;BME280;51140;45.340;5.980;2022-08-19T03:39:00;96981.41;;;17.07;100.00
64713;BME280;51140;45.340;5.980;2022-08-19T03:41:29;96986.34;;;16.92;100.00
64713;BME280;51140;45.340;5.980;2022-08-19T03:43:56;96999.56;;;16.82;100.00
64713;BME280;51140;45.340;5.980;2022-08-19T03:46:25;97000.16;;;16.67;100.00
64713;BME280;51140;45.340;5.980;2022-08-19T03:48:52;96999.13;;;16.77;100.00
64713;BME280;51140;45.340;5.980;2022-08-19T03:51:30;96989.03;;;16.82;100.00
64713;BME280;51140;45.340;5.980;2022-08-19T03:53:58;97000.78;;;16.78;100.00
64713;BME280;51140;45.340;5.980;2022-08-19T03:56:25;96991.09;;;16.88;100.00
64713;BME280;51140;45.340;5.980;2022-08-19T03:58:52;96994.94;;;16.94;100.00
64713;BME280;51140;45.340;5.980;2022-08-19T04:01:21;97002.19;;;16.82;100.00
64713;BME280;51140;45.340;5.980;2022-08-19T04:03:47;97006.63;;;16.82;100.00
64713;BME280;51140;45.340;5.980;2022-08-19T04:06:27;97010.31;;;16.89;100.00
64713;BME280;51140;45.340;5.980;2022-08-19T04:08:54;97014.75;;;16.88;100.00
64713;BME280;51140;45.340;5.980;2022-08-19T04:11:28;97015.72;;;16.87;100.00
64713;BME280;51140;45.340;5.980;2022-08-19T04:13:55;97019.44;;;16.95;100.00
64713;BME280;51140;45.340;5.980;2022-08-19T04:16:23;97021.72;;;17.07;100.00
64713;BME280;51140;45.340;5.980;2022-08-19T04:18:49;97024.41;;;16.98;100.00
64713;BME280;51140;45.340;5.980;2022-08-19T04:21:20;97039.41;;;16.78;100.00
64713;BME280;51140;45.340;5.980;2022-08-19T04:23:47;97034.44;;;16.84;100.00
64713;BME280;51140;45.340;5.980;2022-08-19T04:26:22;97039.94;;;16.91;100.00
64713;BME280;51140;45.340;5.980;2022-08-19T04:28:48;97043.16;;;16.85;100.00
64713;BME280;51140;45.340;5.980;2022-08-19T04:31:16;97046.63;;;16.76;100.00
64713;BME280;51140;45.340;5.980;2022-08-19T04:33:42;97049.53;;;16.82;100.00
64713;BME280;51140;45.340;5.980;2022-08-19T04:36:07;97049.53;;;16.82;100.00
64713;BME280;51140;45.340;5.980;2022-08-19T04:38:34;97056.72;;;16.80;100.00
64713;BME280;51140;45.340;5.980;2022-08-19T04:41:04;97060.88;;;16.83;100.00
64713;BME280;51140;45.340;5.980;2022-08-19T04:43:48;97058.78;;;16.86;100.00
64713;BME280;51140;45.340;5.980;2022-08-19T04:46:15;97052.81;;;16.94;100.00
64713;BME280;51140;45.340;5.980;2022-08-19T04:48:42;97065.03;;;16.85;100.00
64713;BME280;51140;45.340;5.980;2022-08-19T04:51:10;97064.34;;;16.83;100.00
64713;BME280;51140;45.340;5.980;2022-08-19T04:53:40;97066.16;;;16.83;100.00
64713;BME280;51140;45.340;5.980;2022-08-19T04:56:12;97058.41;;;16.81;100.00
64713;BME280;51140;45.340;5.980;2022-08-19T04:58:40;97066.38;;;16.89;100.00
64713;BME280;51140;45.340;5.980;2022-08-19T05:01:14;97074.81;;;16.93;100.00
64713;BME280;51140;45.340;5.980;2022-08-19T05:03:42;97073.84;;;16.94;100.00
64713;BME280;51140;45.340;5.980;2022-08-19T05:06:11;97077.75;;;16.90;100.00
64713;BME280;51140;45.340;5.980;2022-08-19T05:08:39;97082.31;;;16.88;100.00
64713;BME280;51140;45.340;5.980;2022-08-19T05:13:40;97074.44;;;16.88;100.00
64713;BME280;51140;45.340;5.980;2022-08-19T05:16:06;97085.97;;;17.05;100.00
64713;BME280;51140;45.340;5.980;2022-08-19T05:18:31;97089.28;;;17.07;100.00
64713;BME280;51140;45.340;5.980;2022-08-19T05:21:17;97094.84;;;17.04;100.00
64713;BME280;51140;45.340;5.980;2022-08-19T05:24:03;97096.50;;;17.05;100.00
64713;BME280;51140;45.340;5.980;2022-08-19T05:26:29;97098.69;;;17.09;100.00
64713;BME280;51140;45.340;5.980;2022-08-19T05:28:55;97094.69;;;17.05;100.00
64713;BME280;51140;45.340;5.980;2022-08-19T05:31:20;97087.59;;;17.15;100.00
64713;BME280;51140;45.340;5.980;2022-08-19T05:33:46;97094.66;;;17.15;100.00
64713;BME280;51140;45.340;5.980;2022-08-19T05:36:12;97102.25;;;17.18;100.00
64713;BME280;51140;45.340;5.980;2022-08-19T05:38:39;97095.03;;;17.20;100.00
64713;BME280;51140;45.340;5.980;2022-08-19T05:41:12;97108.91;;;17.22;100.00
64713;BME280;51140;45.340;5.980;2022-08-19T05:43:38;97103.34;;;17.25;100.00
64713;BME280;51140;45.340;5.980;2022-08-19T05:46:05;97103.91;;;17.19;100.00
64713;BME280;51140;45.340;5.980;2022-08-19T05:48:32;97106.84;;;17.16;100.00
64713;BME280;51140;45.340;5.980;2022-08-19T05:50:57;97091.56;;;17.29;100.00
64713;BME280;51140;45.340;5.980;2022-08-19T05:53:25;97098.63;;;17.29;100.00
64713;BME280;51140;45.340;5.980;2022-08-19T05:55:50;97101.03;;;17.40;100.00
64713;BME280;51140;45.340;5.980;2022-08-19T05:58:15;97104.81;;;17.37;100.00
64713;BME280;51140;45.340;5.980;2022-08-19T06:00:43;97099.09;;;17.42;100.00
64713;BME280;51140;45.340;5.980;2022-08-19T06:03:10;97094.06;;;17.48;100.00
64713;BME280;51140;45.340;5.980;2022-08-19T06:05:35;97098.94;;;17.43;100.00
64713;BME280;51140;45.340;5.980;2022-08-19T06:08:01;97103.53;;;17.41;100.00
64713;BME280;51140;45.340;5.980;2022-08-19T06:10:26;97107.38;;;17.47;100.00
64713;BME280;51140;45.340;5.980;2022-08-19T06:12:52;97102.19;;;17.55;100.00
64713;BME280;51140;45.340;5.980;2022-08-19T06:15:17;97105.50;;;17.57;100.00
64713;BME280;51140;45.340;5.980;2022-08-19T06:17:43;97111.88;;;17.64;100.00
64713;BME280;51140;45.340;5.980;2022-08-19T06:20:11;97116.97;;;17.66;100.00
64713;BME280;51140;45.340;5.980;2022-08-19T06:22:40;97117.25;;;17.72;100.00
64713;BME280;51140;45.340;5.980;2022-08-19T06:25:06;97125.88;;;17.65;100.00
64713;BME280;51140;45.340;5.980;2022-08-19T06:27:32;97123.22;;;17.65;100.00
64713;BME280;51140;45.340;5.980;2022-08-19T06:29:58;97124.78;;;17.58;100.00
64713;BME280;51140;45.340;5.980;2022-08-19T06:32:24;97128.22;;;17.58;100.00
64713;BME280;51140;45.340;5.980;2022-08-19T06:34:49;97125.91;;;17.55;100.00
64713;BME280;51140;45.340;5.980;2022-08-19T06:37:15;97134.63;;;17.55;100.00
64713;BME280;51140;45.340;5.980;2022-08-19T06:39:42;97125.59;;;17.68;100.00
64713;BME280;51140;45.340;5.980;2022-08-19T06:42:09;97126.44;;;17.59;100.00
64713;BME280;51140;45.340;5.980;2022-08-19T06:44:39;97124.03;;;17.75;100.00
64713;BME280;51140;45.340;5.980;2022-08-19T06:47:07;97116.28;;;17.91;100.00
64713;BME280;51140;45.340;5.980;2022-08-19T06:49:34;97123.66;;;17.88;100.00
64713;BME280;51140;45.340;5.980;2022-08-19T06:52:00;97115.75;;;17.88;100.00
64713;BME280;51140;45.340;5.980;2022-08-19T06:54:27;97118.59;;;17.94;100.00
64713;BME280;51140;45.340;5.980;2022-08-19T06:56:54;97113.78;;;17.90;100.00
64713;BME280;51140;45.340;5.980;2022-08-19T06:59:22;97127.56;;;17.83;100.00
64713;BME280;51140;45.340;5.980;2022-08-19T07:01:54;97122.16;;;17.85;100.00
64713;BME280;51140;45.340;5.980;2022-08-19T07:04:23;97120.50;;;17.84;100.00
64713;BME280;51140;45.340;5.980;2022-08-19T07:06:49;97118.59;;;17.76;100.00
64713;BME280;51140;45.340;5.980;2022-08-19T07:09:18;97117.03;;;17.83;100.00
64713;BME280;51140;45.340;5.980;2022-08-19T07:11:48;97108.75;;;17.96;100.00
64713;BME280;51140;45.340;5.980;2022-08-19T07:14:15;97105.53;;;18.02;100.00
64713;BME280;51140;45.340;5.980;2022-08-19T07:16:44;97109.22;;;18.09;100.00
64713;BME280;51140;45.340;5.980;2022-08-19T07:19:11;97101.97;;;18.11;100.00
64713;BME280;51140;45.340;5.980;2022-08-19T07:21:37;97106.66;;;18.17;100.00
64713;BME280;51140;45.340;5.980;2022-08-19T07:24:03;97106.41;;;18.29;100.00
64713;BME280;51140;45.340;5.980;2022-08-19T07:26:33;97106.31;;;18.38;100.00
64713;BME280;51140;45.340;5.980;2022-08-19T07:28:59;97103.75;;;18.29;100.00
64713;BME280;51140;45.340;5.980;2022-08-19T07:31:27;97094.19;;;18.45;100.00
64713;BME280;51140;45.340;5.980;2022-08-19T07:33:55;97081.72;;;18.56;100.00
64713;BME280;51140;45.340;5.980;2022-08-19T07:36:24;97083.97;;;18.68;100.00
64713;BME280;51140;45.340;5.980;2022-08-19T07:38:51;97097.13;;;18.42;100.00
64713;BME280;51140;45.340;5.980;2022-08-19T07:41:23;97107.06;;;18.31;100.00
64713;BME280;51140;45.340;5.980;2022-08-19T07:43:49;97100.75;;;18.41;100.00
64713;BME280;51140;45.340;5.980;2022-08-19T07:46:15;97107.59;;;18.34;100.00
64713;BME280;51140;45.340;5.980;2022-08-19T07:48:42;97109.03;;;18.29;100.00
64713;BME280;51140;45.340;5.980;2022-08-19T07:51:10;97103.66;;;18.38;100.00
64713;BME280;51140;45.340;5.980;2022-08-19T07:53:37;97108.66;;;18.24;100.00
64713;BME280;51140;45.340;5.980;2022-08-19T07:56:04;97109.38;;;18.08;100.00
64713;BME280;51140;45.340;5.980;2022-08-19T07:58:32;97110.41;;;18.15;100.00
64713;BME280;51140;45.340;5.980;2022-08-19T08:00:59;97108.28;;;18.36;100.00
64713;BME280;51140;45.340;5.980;2022-08-19T08:03:25;97109.50;;;18.42;100.00
64713;BME280;51140;45.340;5.980;2022-08-19T08:06:13;97107.97;;;18.39;100.00
64713;BME280;51140;45.340;5.980;2022-08-19T08:08:57;97114.31;;;18.29;100.00
64713;BME280;51140;45.340;5.980;2022-08-19T08:11:45;97120.41;;;18.29;100.00
64713;BME280;51140;45.340;5.980;2022-08-19T08:14:16;97119.94;;;18.34;100.00
64713;BME280;51140;45.340;5.980;2022-08-19T08:16:41;97117.63;;;18.31;100.00
64713;BME280;51140;45.340;5.980;2022-08-19T08:19:09;97114.34;;;18.55;100.00
64713;BME280;51140;45.340;5.980;2022-08-19T08:21:36;97111.25;;;18.59;100.00
64713;BME280;51140;45.340;5.980;2022-08-19T08:24:01;97113.66;;;18.70;100.00
64713;BME280;51140;45.340;5.980;2022-08-19T08:26:26;97123.56;;;18.51;100.00
64713;BME280;51140;45.340;5.980;2022-08-19T08:28:53;97106.25;;;18.74;100.00
64713;BME280;51140;45.340;5.980;2022-08-19T08:31:18;97099.28;;;18.91;100.00
64713;BME280;51140;45.340;5.980;2022-08-19T08:33:45;97097.03;;;19.04;100.00
64713;BME280;51140;45.340;5.980;2022-08-19T08:36:11;97075.59;;;19.41;100.00
64713;BME280;51140;45.340;5.980;2022-08-19T08:38:40;97086.66;;;19.45;100.00
64713;BME280;51140;45.340;5.980;2022-08-19T08:43:39;97077.22;;;19.84;100.00
64713;BME280;51140;45.340;5.980;2022-08-19T08:46:28;97088.75;;;19.75;100.00
64713;BME280;51140;45.340;5.980;2022-08-19T08:51:44;97068.97;;;20.20;100.00
64713;BME280;51140;45.340;5.980;2022-08-19T08:54:15;97068.31;;;20.34;100.00
64713;BME280;51140;45.340;5.980;2022-08-19T08:56:43;97073.28;;;20.29;100.00
64713;BME280;51140;45.340;5.980;2022-08-19T08:59:19;97084.19;;;20.18;100.00
64713;BME280;51140;45.340;5.980;2022-08-19T09:01:45;97099.69;;;19.96;100.00
64713;BME280;51140;45.340;5.980;2022-08-19T09:04:12;97091.78;;;20.05;100.00
64713;BME280;51140;45.340;5.980;2022-08-19T09:09:47;97089.28;;;19.87;100.00
64713;BME280;51140;45.340;5.980;2022-08-19T09:12:42;97087.50;;;20.03;100.00
64713;BME280;51140;45.340;5.980;2022-08-19T09:15:12;97095.88;;;19.99;100.00
64713;BME280;51140;45.340;5.980;2022-08-19T09:17:39;97100.34;;;19.98;100.00
64713;BME280;51140;45.340;5.980;2022-08-19T09:22:33;97095.38;;;19.79;100.00
64713;BME280;51140;45.340;5.980;2022-08-19T09:24:59;97101.00;;;19.84;100.00
64713;BME280;51140;45.340;5.980;2022-08-19T09:27:25;97108.59;;;19.87;100.00
64713;BME280;51140;45.340;5.980;2022-08-19T09:29:52;97099.72;;;20.21;100.00
64713;BME280;51140;45.340;5.980;2022-08-19T09:32:19;97097.41;;;20.26;100.00
64713;BME280;51140;45.340;5.980;2022-08-19T09:34:45;97095.78;;;20.41;100.00
64713;BME280;51140;45.340;5.980;2022-08-19T09:37:12;97108.81;;;20.34;100.00
64713;BME280;51140;45.340;5.980;2022-08-19T09:39:39;97102.69;;;20.34;100.00
64713;BME280;51140;45.340;5.980;2022-08-19T09:42:08;97102.75;;;20.42;100.00
64713;BME280;51140;45.340;5.980;2022-08-19T09:44:38;97098.94;;;20.53;100.00
64713;BME280;51140;45.340;5.980;2022-08-19T09:47:04;97127.81;;;20.22;100.00
64713;BME280;51140;45.340;5.980;2022-08-19T09:49:30;97134.53;;;20.00;100.00
64713;BME280;51140;45.340;5.980;2022-08-19T09:51:56;97147.25;;;19.88;100.00
64713;BME280;51140;45.340;5.980;2022-08-19T09:54:22;97131.94;;;20.08;100.00
64713;BME280;51140;45.340;5.980;2022-08-19T09:56:48;97153.22;;;19.98;100.00
64713;BME280;51140;45.340;5.980;2022-08-19T09:59:16;97159.31;;;19.91;100.00
64713;BME280;51140;45.340;5.980;2022-08-19T10:04:53;97169.84;;;19.75;100.00
64713;BME280;51140;45.340;5.980;2022-08-19T10:07:37;97145.44;;;19.97;100.00
64713;BME280;51140;45.340;5.980;2022-08-19T10:10:04;97144.94;;;19.85;100.00
64713;BME280;51140;45.340;5.980;2022-08-19T10:12:31;97124.47;;;19.95;100.00
64713;BME280;51140;45.340;5.980;2022-08-19T10:14:58;97130.41;;;19.97;100.00
64713;BME280;51140;45.340;5.980;2022-08-19T10:17:24;97128.47;;;20.08;100.00
64713;BME280;51140;45.340;5.980;2022-08-19T10:19:50;97142.94;;;19.87;100.00
64713;BME280;51140;45.340;5.980;2022-08-19T10:22:17;97138.84;;;19.93;100.00
64713;BME280;51140;45.340;5.980;2022-08-19T10:24:43;97120.97;;;19.87;100.00
64713;BME280;51140;45.340;5.980;2022-08-19T10:27:08;97129.84;;;19.61;100.00
64713;BME280;51140;45.340;5.980;2022-08-19T10:29:34;97129.53;;;19.64;100.00
64713;BME280;51140;45.340;5.980;2022-08-19T10:32:01;97118.50;;;19.77;100.00
64713;BME280;51140;45.340;5.980;2022-08-19T10:34:29;97110.91;;;19.90;100.00
64713;BME280;51140;45.340;5.980;2022-08-19T10:36:56;97124.09;;;19.74;100.00
64713;BME280;51140;45.340;5.980;2022-08-19T10:39:22;97123.09;;;19.75;100.00
64713;BME280;51140;45.340;5.980;2022-08-19T10:41:47;97138.47;;;19.80;100.00
64713;BME280;51140;45.340;5.980;2022-08-19T10:44:13;97125.34;;;20.12;100.00
64713;BME280;51140;45.340;5.980;2022-08-19T10:46:42;97144.50;;;20.06;100.00
64713;BME280;51140;45.340;5.980;2022-08-19T10:49:12;97156.16;;;19.79;100.00
64713;BME280;51140;45.340;5.980;2022-08-19T10:51:41;97146.16;;;20.07;100.00
64713;BME280;51140;45.340;5.980;2022-08-19T10:54:25;97158.97;;;19.86;100.00
64713;BME280;51140;45.340;5.980;2022-08-19T10:57:15;97153.16;;;19.74;100.00
64713;BME280;51140;45.340;5.980;2022-08-19T10:59:41;97147.41;;;19.79;100.00
64713;BME280;51140;45.340;5.980;2022-08-19T11:02:09;97152.34;;;19.82;100.00
64713;BME280;51140;45.340;5.980;2022-08-19T11:04:37;97123.03;;;20.09;100.00
64713;BME280;51140;45.340;5.980;2022-08-19T11:07:03;97130.28;;;20.07;100.00
64713;BME280;51140;45.340;5.980;2022-08-19T11:09:29;97186.41;;;20.51;100.00
64713;BME280;51140;45.340;5.980;2022-08-19T11:11:56;97183.09;;;20.49;100.00
64713;BME280;51140;45.340;5.980;2022-08-19T11:14:23;97178.13;;;20.71;100.00
64713;BME280;51140;45.340;5.980;2022-08-19T11:16:51;97156.94;;;21.67;100.00
64713;BME280;51140;45.340;5.980;2022-08-19T11:19:18;97192.03;;;22.00;100.00
64713;BME280;51140;45.340;5.980;2022-08-19T11:21:46;97238.47;;;21.16;100.00
64713;BME280;51140;45.340;5.980;2022-08-19T11:24:16;97263.84;;;21.35;100.00
64713;BME280;51140;45.340;5.980;2022-08-19T11:26:43;97261.47;;;21.56;100.00
64713;BME280;51140;45.340;5.980;2022-08-19T11:29:11;97265.16;;;20.98;100.00
64713;BME280;51140;45.340;5.980;2022-08-19T11:31:39;97255.19;;;20.68;100.00
64713;BME280;51140;45.340;5.980;2022-08-19T11:34:07;97254.38;;;20.67;100.00
64713;BME280;51140;45.340;5.980;2022-08-19T11:36:34;97284.78;;;20.55;100.00
64713;BME280;51140;45.340;5.980;2022-08-19T11:39:04;97288.59;;;20.60;100.00
64713;BME280;51140;45.340;5.980;2022-08-19T11:41:29;97303.31;;;20.55;100.00
64713;BME280;51140;45.340;5.980;2022-08-19T11:43:55;97294.22;;;20.65;100.00
64713;BME280;51140;45.340;5.980;2022-08-19T11:46:22;97313.59;;;20.74;100.00
64713;BME280;51140;45.340;5.980;2022-08-19T11:48:48;97372.53;;;20.84;100.00
64713;BME280;51140;45.340;5.980;2022-08-19T11:51:18;97342.75;;;20.99;100.00
64713;BME280;51140;45.340;5.980;2022-08-19T11:53:44;97315.47;;;21.39;100.00
64713;BME280;51140;45.340;5.980;2022-08-19T11:56:10;97304.03;;;21.63;100.00
64713;BME280;51140;45.340;5.980;2022-08-19T11:58:36;97320.28;;;21.43;100.00
64713;BME280;51140;45.340;5.980;2022-08-19T12:01:06;97396.28;;;21.51;100.00
64713;BME280;51140;45.340;5.980;2022-08-19T12:03:32;97404.00;;;21.20;100.00
64713;BME280;51140;45.340;5.980;2022-08-19T12:05:57;97453.63;;;21.02;100.00
64713;BME280;51140;45.340;5.980;2022-08-19T12:08:23;97475.78;;;21.51;100.00
64713;BME280;51140;45.340;5.980;2022-08-19T12:10:48;97441.81;;;21.46;100.00
64713;BME280;51140;45.340;5.980;2022-08-19T12:13:14;97510.38;;;21.33;100.00
64713;BME280;51140;45.340;5.980;2022-08-19T12:15:44;97542.66;;;21.29;100.00
64713;BME280;51140;45.340;5.980;2022-08-19T12:18:11;97571.03;;;21.61;100.00
64713;BME280;51140;45.340;5.980;2022-08-19T12:20:40;97474.13;;;21.58;100.00
64713;BME280;51140;45.340;5.980;2022-08-19T12:23:07;97460.38;;;21.54;100.00
64713;BME280;51140;45.340;5.980;2022-08-19T12:25:35;97438.81;;;21.98;100.00
64713;BME280;51140;45.340;5.980;2022-08-19T12:28:00;97453.69;;;22.48;100.00
64713;BME280;51140;45.340;5.980;2022-08-19T12:30:26;97474.13;;;22.95;100.00
64713;BME280;51140;45.340;5.980;2022-08-19T12:32:52;97492.16;;;23.07;100.00
64713;BME280;51140;45.340;5.980;2022-08-19T12:35:19;97554.94;;;23.00;100.00
64713;BME280;51140;45.340;5.980;2022-08-19T12:37:46;97540.88;;;22.75;100.00
64713;BME280;51140;45.340;5.980;2022-08-19T12:40:13;97603.38;;;23.10;100.00
64713;BME280;51140;45.340;5.980;2022-08-19T12:42:39;97560.84;;;23.58;100.00
64713;BME280;51140;45.340;5.980;2022-08-19T12:45:10;97655.69;;;24.04;100.00
64713;BME280;51140;45.340;5.980;2022-08-19T12:47:35;97743.31;;;23.98;100.00
64713;BME280;51140;45.340;5.980;2022-08-19T12:50:01;97813.16;;;24.08;100.00
64713;BME280;51140;45.340;5.980;2022-08-19T12:52:27;97789.16;;;24.55;100.00
64713;BME280;51140;45.340;5.980;2022-08-19T12:54:54;97838.03;;;24.62;100.00
64713;BME280;51140;45.340;5.980;2022-08-19T12:57:22;97757.53;;;25.21;100.00
64713;BME280;51140;45.340;5.980;2022-08-19T12:59:52;97684.38;;;25.53;100.00
64713;BME280;51140;45.340;5.980;2022-08-19T13:02:19;97784.50;;;25.41;100.00
64713;BME280;51140;45.340;5.980;2022-08-19T13:04:45;97799.34;;;25.20;100.00
64713;BME280;51140;45.340;5.980;2022-08-19T13:07:10;97743.31;;;25.58;100.00
64713;BME280;51140;45.340;5.980;2022-08-19T13:09:36;97803.28;;;25.47;100.00